Altamont, North Carolina
Current Conditions -  °F | °C
As of 10:15 PM on Wednesday 22 Oct 2014 (Local Time) from KTNB Reporting Station
Clear Clear  
Wind Chill: 33°   Ceiling: Unl
Heat Index: 41°   Visibility: 10mi
Dew Point: 34°   Wind: 17mph
Humidity: 75%   Direction: 310°NW
Pressure: 30.12"   Gusts: 23mph
Location:  36.0227°N, 81.9499°W
Report Text: KTNB 230215Z AUTO 31015G20KT 10SM CLR 05/01 A3012 RMK AO2 T00510010
Loading
Personal Weather Stations






























Interactive Weather Map New forecast layout! Learn more

10-Day Weather Forecast

Advertisements
Track Severe Weather on mobile